Time;durP1;ratioP1;P1;durP2;ratioP2;P2;SDS_P1;SDS_P2;PMS_P1;PMS_P2;Temp;Humidity;BMP_temperature;BMP_pressure;BME280_temperature;BME280_humidity;BME280_pressure;Samples;Min_cycle;Max_cycle;Signal;HPM_P1;HPM_P2
2022/10/16 00:01:37;;;;;;;0.90;0.77;;;20.50;63.80;;;;;;5109796;27;43618;-60
2022/10/16 00:04:05;;;;;;;1.42;0.85;;;20.50;63.80;;;;;;5112917;27;43623;-60
2022/10/16 00:06:32;;;;;;;1.25;0.80;;;20.50;63.90;;;;;;5107119;27;43461;-60
2022/10/16 00:09:00;;;;;;;1.02;0.80;;;20.50;63.90;;;;;;5108408;27;43474;-60
2022/10/16 00:11:32;;;;;;;1.42;0.88;;;20.50;63.90;;;;;;5109364;27;43659;-60
2022/10/16 00:14:02;;;;;;;1.00;0.90;;;20.50;63.90;;;;;;5107805;27;44763;-60
2022/10/16 00:16:30;;;;;;;0.85;0.85;;;20.50;63.90;;;;;;5114731;27;43451;-60
2022/10/16 00:18:57;;;;;;;1.05;0.95;;;20.50;63.90;;;;;;5114020;27;43365;-60
2022/10/16 00:21:27;;;;;;;1.13;0.82;;;20.50;63.90;;;;;;5110195;27;43649;-60
2022/10/16 00:24:00;;;;;;;0.88;0.88;;;20.50;63.90;;;;;;5108471;27;43693;-60
2022/10/16 00:26:30;;;;;;;0.82;0.70;;;20.50;64.00;;;;;;5107360;27;43985;-60
2022/10/16 00:28:58;;;;;;;0.60;0.60;;;20.50;64.00;;;;;;5107360;27;43449;-60
2022/10/16 00:31:25;;;;;;;1.20;0.80;;;20.50;64.00;;;;;;5108468;27;44393;-60
2022/10/16 00:33:53;;;;;;;1.50;0.90;;;20.40;63.90;;;;;;5107232;27;44979;-60
2022/10/16 00:36:23;;;;;;;0.90;0.70;;;20.50;63.90;;;;;;5107534;27;43910;-60
2022/10/16 00:38:57;;;;;;;1.27;0.60;;;20.50;64.00;;;;;;5108317;27;43421;-60
2022/10/16 00:41:25;;;;;;;2.15;0.77;;;20.40;63.90;;;;;;5109764;27;43996;-60
2022/10/16 00:44:01;;;;;;;0.80;0.77;;;20.40;63.90;;;;;;5100343;27;43891;-60
2022/10/16 00:46:40;;;;;;;0.95;0.80;;;20.40;63.90;;;;;;5109496;27;43711;-60
2022/10/16 00:49:20;;;;;;;1.05;0.80;;;20.40;63.90;;;;;;5103344;27;43473;-60
2022/10/16 00:51:50;;;;;;;0.85;0.50;;;20.40;64.00;;;;;;5103987;27;43484;-60
2022/10/16 00:54:20;;;;;;;1.77;0.87;;;20.40;64.00;;;;;;5103695;27;44953;-60
2022/10/16 00:56:49;;;;;;;1.00;1.00;;;20.40;64.00;;;;;;5102818;27;44068;-60
2022/10/16 00:59:26;;;;;;;1.00;0.70;;;20.40;64.00;;;;;;5097689;27;43409;-60
2022/10/16 01:01:54;;;;;;;1.33;0.88;;;20.40;63.90;;;;;;5095441;27;43491;-60
2022/10/16 01:04:23;;;;;;;0.70;0.70;;;20.40;64.00;;;;;;5103373;27;45222;-60
2022/10/16 01:07:11;;;;;;;1.17;0.90;;;20.40;64.00;;;;;;5099439;27;43781;-60
2022/10/16 01:09:55;;;;;;;0.93;0.90;;;20.30;63.90;;;;;;5102068;27;43437;-60
2022/10/16 01:12:57;;;;;;;0.73;0.73;;;20.30;64.00;;;;;;5103439;27;43502;-60
2022/10/16 01:15:37;;;;;;;5.50;1.02;;;20.30;64.70;;;;;;5092655;27;44995;-60
2022/10/16 01:18:25;;;;;;;1.45;0.77;;;20.30;64.00;;;;;;5103050;27;43400;-60
2022/10/16 01:21:05;;;;;;;0.98;0.60;;;20.30;64.00;;;;;;5103564;27;43484;-60
2022/10/16 01:24:03;;;;;;;0.88;0.88;;;20.30;64.10;;;;;;5084516;27;43548;-60
2022/10/16 01:26:36;;;;;;;1.35;0.73;;;20.30;64.00;;;;;;5098903;27;44800;-60
2022/10/16 01:29:21;;;;;;;1.38;0.82;;;20.30;64.10;;;;;;5103450;27;43441;-60
2022/10/16 01:31:56;;;;;;;0.80;0.70;;;20.30;64.10;;;;;;5102586;27;43438;-60
2022/10/16 01:34:35;;;;;;;1.85;0.80;;;20.30;64.00;;;;;;5099815;27;43506;-60
2022/10/16 01:37:11;;;;;;;1.20;0.63;;;20.30;64.10;;;;;;5102687;27;44969;-60
2022/10/16 01:39:44;;;;;;;0.85;0.82;;;20.30;64.00;;;;;;5102533;27;43800;-60
2022/10/16 01:42:17;;;;;;;0.98;0.90;;;20.20;64.00;;;;;;5102746;27;43504;-60
2022/10/16 01:44:48;;;;;;;0.70;0.70;;;20.20;64.70;;;;;;5098887;27;43478;-60
2022/10/16 01:47:17;;;;;;;0.57;0.52;;;20.30;64.10;;;;;;5101939;27;44984;-59
2022/10/16 01:49:45;;;;;;;0.80;0.80;;;20.20;64.00;;;;;;5107884;27;43981;-60
2022/10/16 01:52:18;;;;;;;1.15;0.80;;;20.20;64.00;;;;;;5108916;27;43445;-60
2022/10/16 01:54:49;;;;;;;0.95;0.85;;;20.20;64.10;;;;;;5106909;27;43441;-60
2022/10/16 01:57:18;;;;;;;1.05;0.77;;;20.20;64.00;;;;;;5106441;27;44694;-60
2022/10/16 01:59:53;;;;;;;1.55;1.10;;;20.20;64.00;;;;;;5121960;27;43332;-60
2022/10/16 02:02:21;;;;;;;0.95;0.70;;;20.20;64.00;;;;;;5103547;27;43438;-60
2022/10/16 02:04:57;;;;;;;1.42;0.88;;;20.20;64.00;;;;;;5108485;27;43415;-60
2022/10/16 02:07:24;;;;;;;0.88;0.80;;;20.20;64.00;;;;;;5106784;27;45267;-60
2022/10/16 02:09:52;;;;;;;0.68;0.68;;;20.20;64.10;;;;;;5108650;27;43541;-60
2022/10/16 02:12:29;;;;;;;0.90;0.80;;;20.20;64.10;;;;;;5105314;27;43474;-60
2022/10/16 02:14:57;;;;;;;1.13;0.90;;;20.20;64.00;;;;;;5104016;27;43509;-60
2022/10/16 02:17:25;;;;;;;0.80;0.60;;;20.20;64.00;;;;;;5108401;27;44055;-60
2022/10/16 02:19:55;;;;;;;1.13;0.68;;;20.20;64.10;;;;;;5107163;27;43369;-60
2022/10/16 02:22:46;;;;;;;0.95;0.80;;;20.20;64.00;;;;;;5106389;27;43454;-60
2022/10/16 02:25:19;;;;;;;0.77;0.70;;;20.20;64.00;;;;;;5108123;27;43721;-60
2022/10/16 02:28:08;;;;;;;0.70;0.70;;;20.10;64.00;;;;;;5106274;27;44157;-60
2022/10/16 02:30:54;;;;;;;1.00;0.70;;;20.10;64.00;;;;;;5105944;27;43439;-60
2022/10/16 02:33:24;;;;;;;2.22;0.90;;;20.10;64.10;;;;;;5106520;27;43422;-60
2022/10/16 02:35:53;;;;;;;0.80;0.80;;;20.10;64.10;;;;;;5102943;27;43501;-60
2022/10/16 02:38:21;;;;;;;0.82;0.80;;;20.10;64.10;;;;;;5108195;27;44969;-60
2022/10/16 02:40:49;;;;;;;1.52;0.90;;;20.10;64.10;;;;;;5110043;27;43403;-60
2022/10/16 02:43:17;;;;;;;0.70;0.70;;;20.10;64.10;;;;;;5123526;27;43376;-60
2022/10/16 02:45:46;;;;;;;0.98;0.70;;;20.10;64.10;;;;;;5109732;27;43554;-60
2022/10/16 02:48:13;;;;;;;0.80;0.80;;;20.10;64.10;;;;;;5111017;27;43807;-60
2022/10/16 02:50:40;;;;;;;1.00;0.77;;;20.10;64.10;;;;;;5110362;27;44659;-60
2022/10/16 02:53:08;;;;;;;0.90;0.80;;;20.10;64.10;;;;;;5112372;27;43441;-60
2022/10/16 02:55:35;;;;;;;0.95;0.70;;;20.10;64.10;;;;;;5108445;27;43487;-60
2022/10/16 02:58:03;;;;;;;0.75;0.63;;;20.10;64.10;;;;;;5112019;27;43883;-60
2022/10/16 03:00:30;;;;;;;0.60;0.60;;;20.10;64.10;;;;;;5109607;27;43371;-60
2022/10/16 03:02:58;;;;;;;1.05;0.70;;;20.10;64.10;;;;;;5112595;27;43464;-60
2022/10/16 03:05:25;;;;;;;0.75;0.75;;;20.10;64.10;;;;;;5125552;27;44057;-60
2022/10/16 03:07:52;;;;;;;0.77;0.68;;;20.10;64.10;;;;;;5116748;27;44969;-60
2022/10/16 03:10:20;;;;;;;1.02;0.90;;;20.10;64.10;;;;;;5109508;27;43825;-60
2022/10/16 03:12:47;;;;;;;0.52;0.52;;;20.10;64.10;;;;;;5112209;27;43501;-60
2022/10/16 03:15:15;;;;;;;0.60;0.60;;;20.10;64.10;;;;;;5113474;27;43463;-60
2022/10/16 03:17:43;;;;;;;0.57;0.57;;;20.10;64.10;;;;;;5111757;27;44987;-60
2022/10/16 03:20:11;;;;;;;1.08;0.90;;;20.10;64.20;;;;;;5110530;27;43367;-60
2022/10/16 03:22:38;;;;;;;1.20;0.70;;;20.10;64.10;;;;;;5110274;27;43447;-60
2022/10/16 03:25:06;;;;;;;1.33;0.70;;;20.10;64.10;;;;;;5109544;27;43426;-60
2022/10/16 03:27:33;;;;;;;1.38;0.68;;;20.10;64.10;;;;;;5108689;27;45008;-60
2022/10/16 03:30:01;;;;;;;0.90;0.70;;;20.10;64.10;;;;;;5109699;27;43428;-60
2022/10/16 03:32:28;;;;;;;1.17;0.60;;;20.10;64.10;;;;;;5111539;27;43348;-60
2022/10/16 03:34:56;;;;;;;0.70;0.70;;;20.00;64.10;;;;;;5108838;27;43533;-60
2022/10/16 03:37:24;;;;;;;1.05;0.90;;;20.00;64.10;;;;;;5108220;27;44038;-60
2022/10/16 03:39:52;;;;;;;0.90;0.70;;;20.00;64.10;;;;;;5115978;27;43981;-60
2022/10/16 03:42:19;;;;;;;0.68;0.68;;;20.00;64.20;;;;;;5112212;27;43479;-60
2022/10/16 03:44:47;;;;;;;0.95;0.75;;;20.00;64.10;;;;;;5108096;27;43637;-60
2022/10/16 03:47:14;;;;;;;0.70;0.70;;;20.00;64.10;;;;;;5118594;27;45007;-60
2022/10/16 03:49:42;;;;;;;0.70;0.70;;;20.00;64.20;;;;;;5110698;27;44054;-60
2022/10/16 03:52:09;;;;;;;0.60;0.60;;;20.00;64.10;;;;;;5110769;27;43445;-60
2022/10/16 03:54:37;;;;;;;0.50;0.50;;;20.00;64.10;;;;;;5108389;27;43569;-60
2022/10/16 03:57:04;;;;;;;0.50;0.50;;;20.00;64.20;;;;;;5108248;27;45088;-60
2022/10/16 03:59:32;;;;;;;1.48;0.60;;;20.00;64.20;;;;;;5121548;27;43491;-60
2022/10/16 04:01:59;;;;;;;0.80;0.80;;;20.00;64.10;;;;;;5111408;27;43510;-59
2022/10/16 04:04:27;;;;;;;0.70;0.70;;;20.00;64.10;;;;;;5091669;27;43605;-60
2022/10/16 04:06:54;;;;;;;0.57;0.57;;;20.00;64.20;;;;;;5107748;27;44050;-60
2022/10/16 04:09:21;;;;;;;0.63;0.63;;;20.00;64.20;;;;;;5109407;27;44285;-60
2022/10/16 04:11:49;;;;;;;0.88;0.80;;;19.90;64.10;;;;;;5110398;27;43438;-60
2022/10/16 04:14:16;;;;;;;0.90;0.75;;;19.90;64.10;;;;;;5108542;27;43417;-60
2022/10/16 04:16:44;;;;;;;0.95;0.82;;;19.90;64.10;;;;;;5107781;27;43802;-60
2022/10/16 04:19:11;;;;;;;0.70;0.70;;;19.90;64.10;;;;;;5108394;27;43837;-60
2022/10/16 04:21:39;;;;;;;0.63;0.50;;;19.90;64.10;;;;;;5110540;27;43414;-60
2022/10/16 04:24:06;;;;;;;0.63;0.60;;;19.90;64.10;;;;;;5108385;27;43565;-60
2022/10/16 04:26:34;;;;;;;0.65;0.65;;;19.90;64.20;;;;;;5106720;27;44042;-60
2022/10/16 04:29:01;;;;;;;0.98;0.55;;;19.90;64.20;;;;;;5109089;27;43413;-60
2022/10/16 04:31:29;;;;;;;0.50;0.50;;;19.90;64.20;;;;;;5116611;27;43438;-60
2022/10/16 04:33:56;;;;;;;1.13;0.60;;;19.90;64.20;;;;;;5107649;27;43511;-60
2022/10/16 04:36:24;;;;;;;1.20;0.80;;;19.90;64.20;;;;;;5107457;27;43900;-60
2022/10/16 04:38:55;;;;;;;1.40;0.73;;;19.90;64.20;;;;;;5109155;27;43389;-60
2022/10/16 04:41:23;;;;;;;1.05;0.88;;;19.90;64.20;;;;;;5107633;27;43475;-60
2022/10/16 04:43:50;;;;;;;0.70;0.70;;;19.90;64.20;;;;;;5107830;27;43415;-60
2022/10/16 04:46:17;;;;;;;0.80;0.80;;;19.90;64.20;;;;;;5110330;27;44033;-60
2022/10/16 04:48:46;;;;;;;0.70;0.70;;;19.90;64.10;;;;;;5088637;27;43994;-59
2022/10/16 04:51:13;;;;;;;0.75;0.73;;;19.90;64.20;;;;;;5109794;27;43434;-60
2022/10/16 04:53:41;;;;;;;0.70;0.70;;;19.80;64.20;;;;;;5107891;27;43600;-60
2022/10/16 04:56:08;;;;;;;0.60;0.60;;;19.80;64.20;;;;;;5107104;27;44713;-60
2022/10/16 04:58:36;;;;;;;0.73;0.65;;;19.80;64.20;;;;;;5112628;27;43484;-60
2022/10/16 05:01:03;;;;;;;0.68;0.68;;;19.80;64.20;;;;;;5107056;27;43407;-60
2022/10/16 05:03:31;;;;;;;0.47;0.47;;;19.80;64.10;;;;;;5107726;27;43561;-60
2022/10/16 05:05:58;;;;;;;0.82;0.80;;;19.80;64.80;;;;;;5114023;27;44704;-60
2022/10/16 05:08:26;;;;;;;0.88;0.85;;;19.80;64.20;;;;;;5117544;27;44021;-60
2022/10/16 05:10:53;;;;;;;0.70;0.70;;;19.80;64.20;;;;;;5109907;27;43453;-60
2022/10/16 05:13:20;;;;;;;1.55;1.00;;;19.80;64.20;;;;;;5109698;27;43613;-60
2022/10/16 05:15:48;;;;;;;1.08;0.98;;;19.80;64.10;;;;;;5114861;27;44717;-60
2022/10/16 05:18:17;;;;;;;0.60;0.60;;;19.80;64.10;;;;;;5118696;27;43495;-59
2022/10/16 05:20:45;;;;;;;0.80;0.80;;;19.80;64.20;;;;;;5118824;27;43384;-60
2022/10/16 05:23:12;;;;;;;0.60;0.60;;;19.90;64.30;;;;;;5108119;27;43449;-60
2022/10/16 05:25:54;;;;;;;1.25;0.75;;;19.80;64.20;;;;;;5111950;27;44053;-60
2022/10/16 05:28:21;;;;;;;0.80;0.77;;;19.90;64.30;;;;;;5123350;27;43671;-60
2022/10/16 05:30:49;;;;;;;1.15;0.85;;;19.90;64.20;;;;;;5106481;27;43719;-59
2022/10/16 05:33:16;;;;;;;0.60;0.60;;;19.90;64.30;;;;;;5110222;27;43962;-60
2022/10/16 05:35:44;;;;;;;1.13;0.70;;;19.90;64.20;;;;;;5111935;27;45188;-60
2022/10/16 05:38:12;;;;;;;0.60;0.60;;;19.90;64.30;;;;;;5118889;27;43394;-60
2022/10/16 05:40:39;;;;;;;0.77;0.70;;;19.90;64.20;;;;;;5116171;27;43475;-60
2022/10/16 05:43:07;;;;;;;0.77;0.60;;;19.90;64.20;;;;;;5114668;27;43641;-60
2022/10/16 05:45:34;;;;;;;0.65;0.60;;;19.80;64.10;;;;;;5114058;27;44691;-60
2022/10/16 05:48:02;;;;;;;0.70;0.70;;;19.80;64.20;;;;;;5107362;27;43469;-60
2022/10/16 05:50:29;;;;;;;0.70;0.70;;;19.80;64.10;;;;;;5119823;27;43518;-60
2022/10/16 05:52:57;;;;;;;1.08;0.73;;;19.80;64.10;;;;;;5119420;27;43555;-59
2022/10/16 05:55:25;;;;;;;0.80;0.80;;;19.80;64.10;;;;;;5108558;27;44036;-60
2022/10/16 05:57:54;;;;;;;0.85;0.60;;;19.80;64.20;;;;;;5117269;27;43432;-60
2022/10/16 06:00:22;;;;;;;0.80;0.80;;;19.80;64.30;;;;;;5116786;27;43426;-60
2022/10/16 06:02:49;;;;;;;0.82;0.82;;;19.80;64.30;;;;;;5114892;27;43626;-60
2022/10/16 06:05:17;;;;;;;0.90;0.80;;;19.80;64.30;;;;;;5112000;27;43870;-61
2022/10/16 06:07:44;;;;;;;1.02;0.80;;;19.80;64.30;;;;;;5118016;27;43690;-60
2022/10/16 06:10:11;;;;;;;1.88;1.15;;;19.80;64.30;;;;;;5118843;27;43522;-59
2022/10/16 06:12:39;;;;;;;0.60;0.60;;;19.80;64.30;;;;;;5117175;27;43618;-59
2022/10/16 06:15:07;;;;;;;0.60;0.60;;;19.80;64.20;;;;;;5112644;27;44837;-60
2022/10/16 06:17:34;;;;;;;0.85;0.70;;;19.80;64.30;;;;;;5120139;27;43872;-60
2022/10/16 06:20:02;;;;;;;0.82;0.80;;;19.80;64.40;;;;;;5118471;27;43394;-60
2022/10/16 06:22:29;;;;;;;0.80;0.80;;;19.80;64.30;;;;;;5119946;27;43616;-59
2022/10/16 06:24:57;;;;;;;0.75;0.65;;;19.80;64.40;;;;;;5113178;27;45005;-60
2022/10/16 06:27:24;;;;;;;1.27;0.90;;;19.80;64.40;;;;;;5117681;27;43453;-60
2022/10/16 06:29:52;;;;;;;0.70;0.60;;;19.80;64.40;;;;;;5120194;27;43501;-59
2022/10/16 06:32:20;;;;;;;0.70;0.70;;;19.80;64.40;;;;;;5123469;27;43469;-59
2022/10/16 06:34:49;;;;;;;1.20;0.80;;;19.80;64.40;;;;;;5120429;27;45167;-59
2022/10/16 06:37:20;;;;;;;0.55;0.55;;;19.70;64.30;;;;;;5112778;27;43523;-59
2022/10/16 06:39:49;;;;;;;0.95;0.75;;;19.80;64.30;;;;;;5123809;27;43429;-59
2022/10/16 06:42:16;;;;;;;1.98;1.35;;;19.80;64.30;;;;;;5123405;27;43635;-59
2022/10/16 06:44:44;;;;;;;0.90;0.90;;;19.80;64.30;;;;;;5114084;27;44703;-61
2022/10/16 06:47:12;;;;;;;0.80;0.80;;;19.80;64.30;;;;;;5118210;27;43540;-59
2022/10/16 06:49:40;;;;;;;1.27;0.50;;;19.80;64.30;;;;;;5109189;27;43431;-59
2022/10/16 06:52:07;;;;;;;0.90;0.75;;;19.80;64.30;;;;;;5109957;27;43592;-60
2022/10/16 06:54:35;;;;;;;2.25;0.90;;;19.80;64.20;;;;;;5114988;27;44949;-60
2022/10/16 06:57:08;;;;;;;0.88;0.63;;;19.80;64.20;;;;;;5118487;27;43862;-60
2022/10/16 06:59:35;;;;;;;0.80;0.80;;;19.80;64.30;;;;;;5118139;27;43403;-59
2022/10/16 07:02:03;;;;;;;0.70;0.65;;;19.80;64.30;;;;;;5111528;27;43498;-59
2022/10/16 07:04:32;;;;;;;1.08;0.90;;;19.80;64.90;;;;;;5109272;27;43804;-59
2022/10/16 07:07:03;;;;;;;1.70;0.70;;;19.80;64.30;;;;;;5111224;27;43347;-59
2022/10/16 07:09:36;;;;;;;1.15;0.95;;;19.80;64.30;;;;;;5117926;27;43542;-59
2022/10/16 07:12:06;;;;;;;0.73;0.73;;;19.80;64.40;;;;;;5122175;27;43426;-60
2022/10/16 07:14:39;;;;;;;1.85;1.00;;;19.80;64.40;;;;;;5111478;27;44073;-59
2022/10/16 07:17:08;;;;;;;1.13;0.98;;;19.80;64.50;;;;;;5111977;27;43485;-60
2022/10/16 07:19:35;;;;;;;1.48;0.80;;;19.80;64.50;;;;;;5121445;27;43477;-60
2022/10/16 07:22:04;;;;;;;0.82;0.82;;;19.80;64.40;;;;;;5110167;27;43636;-60
2022/10/16 07:24:36;;;;;;;0.90;0.90;;;19.80;64.40;;;;;;5078692;27;45006;-60
2022/10/16 07:27:07;;;;;;;0.70;0.70;;;19.80;64.40;;;;;;5105034;27;43560;-60
2022/10/16 07:29:34;;;;;;;2.58;1.52;;;19.80;64.40;;;;;;5119903;27;43427;-60
2022/10/16 07:32:02;;;;;;;4.15;3.85;;;19.80;64.50;;;;;;5120187;27;43576;-61
2022/10/16 07:34:29;;;;;;;4.10;3.80;;;19.80;65.20;;;;;;5111022;27;44970;-60
2022/10/16 07:36:56;;;;;;;4.30;3.90;;;19.80;64.60;;;;;;5116460;27;43463;-59
2022/10/16 07:39:24;;;;;;;4.68;3.67;;;19.90;65.30;;;;;;5114565;27;43412;-60
2022/10/16 07:41:52;;;;;;;3.60;3.30;;;20.00;64.50;;;;;;5119533;27;43513;-59
2022/10/16 07:44:20;;;;;;;3.40;3.10;;;20.00;64.40;;;;;;5113033;27;44875;-60
2022/10/16 07:46:47;;;;;;;3.47;3.17;;;20.20;64.50;;;;;;5121203;27;43906;-60
2022/10/16 07:49:15;;;;;;;3.25;3.00;;;20.30;64.20;;;;;;5120735;27;43511;-60
2022/10/16 07:51:42;;;;;;;3.13;2.83;;;20.40;64.00;;;;;;5112540;27;43644;-61
2022/10/16 07:54:10;;;;;;;2.70;2.50;;;20.60;63.80;;;;;;5122909;27;44017;-61
2022/10/16 07:56:38;;;;;;;4.15;2.70;;;20.70;63.50;;;;;;5120433;27;43464;-60
2022/10/16 07:59:10;;;;;;;3.65;2.50;;;20.90;63.30;;;;;;5124110;27;43545;-61
2022/10/16 08:01:37;;;;;;;2.72;2.50;;;21.00;63.10;;;;;;5118466;27;43588;-61
2022/10/16 08:04:05;;;;;;;3.13;2.20;;;21.20;62.80;;;;;;5108756;27;44026;-61
2022/10/16 08:06:39;;;;;;;2.20;2.10;;;21.40;62.60;;;;;;5102219;27;45231;-61
2022/10/16 08:09:08;;;;;;;2.35;2.20;;;21.60;62.30;;;;;;5124716;27;43420;-61
2022/10/16 08:11:35;;;;;;;2.22;1.98;;;21.70;62.10;;;;;;5108091;27;43573;-60
2022/10/16 08:14:02;;;;;;;2.17;2.03;;;21.80;61.70;;;;;;5120719;27;44990;-61
2022/10/16 08:16:30;;;;;;;2.30;2.10;;;22.00;61.60;;;;;;5119372;27;43450;-61
2022/10/16 08:18:57;;;;;;;3.25;1.90;;;22.10;61.50;;;;;;5111002;27;43364;-61
2022/10/16 08:21:25;;;;;;;2.25;1.92;;;22.20;61.40;;;;;;5114484;27;43586;-61
2022/10/16 08:23:54;;;;;;;2.00;1.80;;;22.30;61.10;;;;;;5117682;27;45188;-61
2022/10/16 08:26:26;;;;;;;2.28;2.08;;;22.50;61.00;;;;;;5110735;27;43455;-60
2022/10/16 08:28:54;;;;;;;1.92;1.80;;;22.60;60.60;;;;;;5109371;27;43474;-62
2022/10/16 08:31:22;;;;;;;3.75;1.88;;;22.70;60.60;;;;;;5115272;27;43418;-62
2022/10/16 08:33:51;;;;;;;3.30;1.75;;;22.90;60.50;;;;;;5117716;27;43869;-62
2022/10/16 08:36:18;;;;;;;11.95;3.88;;;23.00;60.30;;;;;;5093029;27;43536;-61
2022/10/16 08:38:49;;;;;;;5.25;1.77;;;23.10;60.10;;;;;;5092553;27;43482;-62
2022/10/16 08:41:28;;;;;;;2.50;1.58;;;23.20;59.80;;;;;;5113652;27;43584;-61
2022/10/16 08:44:16;;;;;;;4.15;1.80;;;23.30;59.80;;;;;;5118889;27;45420;-62
2022/10/16 08:47:17;;;;;;;1.70;1.60;;;23.30;59.60;;;;;;5112754;27;43401;-61
2022/10/16 08:50:01;;;;;;;2.83;1.70;;;23.40;59.40;;;;;;5108520;27;43411;-62
2022/10/16 08:52:35;;;;;;;1.55;1.38;;;23.50;59.60;;;;;;5119029;27;43436;-59
2022/10/16 08:55:04;;;;;;;2.00;1.60;;;23.60;59.50;;;;;;5123092;27;44046;-61
2022/10/16 08:57:32;;;;;;;1.98;1.48;;;23.60;59.30;;;;;;5110267;27;43953;-61
2022/10/16 09:00:11;;;;;;;1.58;1.48;;;23.60;59.20;;;;;;5112010;27;43443;-58
2022/10/16 09:02:48;;;;;;;2.65;1.48;;;23.70;59.30;;;;;;5120226;27;43508;-58
2022/10/16 09:05:28;;;;;;;1.85;1.20;;;23.70;59.20;;;;;;5106144;27;43851;-60
2022/10/16 09:07:55;;;;;;;1.80;1.20;;;23.70;59.20;;;;;;5112618;27;44163;-60
2022/10/16 09:10:40;;;;;;;2.30;1.30;;;23.80;59.20;;;;;;5115420;27;43478;-59
2022/10/16 09:13:47;;;;;;;3.47;1.33;;;23.80;59.10;;;;;;5104948;27;43455;-59
2022/10/16 09:16:29;;;;;;;1.10;1.00;;;23.80;58.90;;;;;;5111389;27;44727;-59
2022/10/16 09:19:16;;;;;;;2.05;1.27;;;23.80;59.30;;;;;;5114796;27;43419;-59
2022/10/16 09:21:47;;;;;;;1.70;1.20;;;23.80;59.20;;;;;;5101197;27;43434;-59
2022/10/16 09:24:16;;;;;;;;;;;23.80;59.20;;;;;;5112021;27;43522;-58
2022/10/16 09:26:45;;;;;;;1.90;1.10;;;23.80;59.20;;;;;;5111241;27;43864;-58
2022/10/16 09:29:21;;;;;;;1.20;1.10;;;23.70;59.30;;;;;;5117404;27;43539;-58
2022/10/16 09:31:49;;;;;;;1.65;1.50;;;23.70;59.20;;;;;;5118305;27;43417;-58
2022/10/16 09:34:34;;;;;;;1.20;1.10;;;23.70;60.00;;;;;;5109281;27;43970;-58
2022/10/16 09:37:08;;;;;;;1.52;1.00;;;23.70;59.30;;;;;;5114091;27;44017;-59
2022/10/16 09:39:50;;;;;;;1.75;0.98;;;23.70;59.40;;;;;;5114304;27;44032;-58
2022/10/16 09:42:20;;;;;;;1.67;1.10;;;23.70;59.40;;;;;;5099466;27;43439;-58
2022/10/16 09:44:50;;;;;;;1.00;0.93;;;23.70;59.50;;;;;;5107868;27;43438;-58
2022/10/16 09:47:22;;;;;;;1.80;1.10;;;23.60;59.50;;;;;;5119541;27;43797;-58
2022/10/16 09:49:53;;;;;;;2.67;1.48;;;23.60;59.50;;;;;;5121784;27;43505;-59
2022/10/16 09:52:21;;;;;;;1.67;1.15;;;23.50;59.80;;;;;;5111848;27;43410;-58
2022/10/16 09:54:56;;;;;;;1.27;1.00;;;23.50;59.70;;;;;;5117180;27;43515;-59
2022/10/16 09:57:24;;;;;;;1.15;1.00;;;23.50;59.90;;;;;;5123414;27;43991;-58
2022/10/16 09:59:57;;;;;;;2.25;1.27;;;23.40;59.80;;;;;;5112846;27;43384;-59
2022/10/16 10:02:40;;;;;;;1.75;1.38;;;23.40;59.90;;;;;;5110579;27;43406;-59
2022/10/16 10:05:22;;;;;;;2.30;1.20;;;23.40;59.80;;;;;;5121654;27;43473;-58
2022/10/16 10:07:57;;;;;;;3.33;1.30;;;23.30;60.00;;;;;;5121577;27;43874;-59
2022/10/16 10:10:30;;;;;;;2.03;1.00;;;23.30;60.00;;;;;;5115116;27;43766;-59
2022/10/16 10:12:57;;;;;;;3.22;1.30;;;23.20;60.20;;;;;;5117342;27;43395;-59
2022/10/16 10:15:28;;;;;;;1.88;1.17;;;23.20;60.20;;;;;;5122766;27;43468;-59
2022/10/16 10:17:57;;;;;;;1.70;1.00;;;23.20;60.30;;;;;;5118322;27;44717;-59
2022/10/16 10:20:34;;;;;;;2.05;1.10;;;23.20;60.30;;;;;;5118819;27;43655;-59
2022/10/16 10:23:21;;;;;;;2.47;1.38;;;23.10;60.30;;;;;;5120129;27;43494;-58
2022/10/16 10:25:56;;;;;;;2.88;1.20;;;23.10;60.30;;;;;;5119253;27;43449;-59
2022/10/16 10:28:42;;;;;;;2.30;1.20;;;23.10;60.50;;;;;;5119361;27;44952;-59
2022/10/16 10:31:27;;;;;;;2.85;1.25;;;23.10;60.50;;;;;;5123018;27;43418;-59
2022/10/16 10:34:02;;;;;;;2.28;1.08;;;23.00;60.60;;;;;;5119367;27;43457;-58
2022/10/16 10:36:33;;;;;;;2.83;1.35;;;23.00;60.60;;;;;;5119950;27;43516;-58
2022/10/16 10:39:20;;;;;;;1.90;1.30;;;23.00;60.60;;;;;;5122488;27;44209;-59
2022/10/16 10:42:07;;;;;;;1.58;1.20;;;22.90;60.70;;;;;;5117913;27;43487;-59
2022/10/16 10:45:12;;;;;;;3.33;1.40;;;22.90;60.80;;;;;;5119698;27;44002;-59
2022/10/16 10:48:04;;;;;;;4.68;1.52;;;22.90;60.70;;;;;;5119007;27;43578;-59
2022/10/16 10:51:03;;;;;;;2.35;1.48;;;22.80;60.80;;;;;;5117394;27;43887;-59
2022/10/16 10:53:48;;;;;;;3.67;1.40;;;22.80;60.90;;;;;;5080837;27;43460;-59
2022/10/16 10:56:16;;;;;;;1.83;1.30;;;22.80;61.00;;;;;;5121593;27;43404;-59
2022/10/16 10:58:44;;;;;;;3.25;1.50;;;22.80;61.10;;;;;;5119743;27;43431;-61
2022/10/16 11:01:21;;;;;;;3.75;1.60;;;22.80;61.10;;;;;;5117933;27;44092;-61
2022/10/16 11:03:52;;;;;;;2.72;1.60;;;22.80;61.10;;;;;;5121762;27;43460;-61
2022/10/16 11:06:32;;;;;;;3.65;1.60;;;22.80;61.10;;;;;;5123898;27;43395;-60
2022/10/16 11:09:32;;;;;;;3.33;1.30;;;22.80;61.10;;;;;;5118314;27;43537;-61
2022/10/16 11:12:06;;;;;;;2.95;1.70;;;22.80;61.10;;;;;;5099987;27;44055;-60
2022/10/16 11:14:46;;;;;;;2.70;1.40;;;22.70;61.10;;;;;;5109983;27;43650;-61
2022/10/16 11:17:29;;;;;;;3.05;1.60;;;22.70;61.10;;;;;;5112321;27;43553;-60
2022/10/16 11:20:21;;;;;;;2.83;1.50;;;22.70;61.10;;;;;;5118459;27;43708;-61
2022/10/16 11:22:56;;;;;;;2.95;1.73;;;22.70;61.10;;;;;;5120411;27;43903;-60
2022/10/16 11:25:33;;;;;;;2.38;1.42;;;22.70;61.20;;;;;;5110188;27;43520;-61
2022/10/16 11:28:11;;;;;;;3.00;1.40;;;22.60;61.10;;;;;;5119180;27;43445;-61
2022/10/16 11:30:44;;;;;;;2.25;1.10;;;22.60;61.30;;;;;;5118937;27;43475;-61
2022/10/16 11:33:18;;;;;;;4.03;1.55;;;22.60;61.30;;;;;;5109221;27;44757;-61
2022/10/16 11:36:06;;;;;;;2.28;1.25;;;22.60;61.30;;;;;;5115446;27;43818;-61
2022/10/16 11:38:56;;;;;;;3.75;1.50;;;22.60;61.40;;;;;;5118009;27;43437;-61
2022/10/16 11:41:43;;;;;;;4.00;1.60;;;22.60;61.40;;;;;;5114211;27;43585;-61
2022/10/16 11:44:41;;;;;;;3.72;1.75;;;22.60;61.30;;;;;;5107305;27;43905;-61
2022/10/16 11:47:35;;;;;;;3.75;1.40;;;22.60;61.40;;;;;;5117334;27;43806;-61
2022/10/16 11:50:41;;;;;;;3.38;1.38;;;22.70;61.30;;;;;;5097319;27;43524;-61
2022/10/16 11:53:24;;;;;;;3.78;1.77;;;22.60;61.30;;;;;;5115237;27;43497;-61
2022/10/16 11:55:51;;;;;;;3.97;1.40;;;22.60;61.30;;;;;;5113913;27;43727;-61
2022/10/16 11:58:34;;;;;;;5.25;2.17;;;22.60;61.40;;;;;;5118899;27;43983;-61
2022/10/16 12:01:11;;;;;;;3.78;1.52;;;22.60;61.30;;;;;;5111141;27;43509;-61
2022/10/16 12:03:56;;;;;;;3.83;1.20;;;22.60;61.30;;;;;;5114821;27;43566;-61
2022/10/16 12:06:31;;;;;;;2.85;1.58;;;22.60;61.30;;;;;;5112100;27;44952;-61
2022/10/16 12:09:00;;;;;;;3.20;1.60;;;22.60;61.20;;;;;;5106632;27;43457;-61
2022/10/16 12:11:27;;;;;;;2.88;1.70;;;22.60;61.30;;;;;;5115912;27;43485;-61
2022/10/16 12:14:36;;;;;;;2.60;1.45;;;22.60;61.30;;;;;;5117403;27;43603;-61
2022/10/16 12:17:37;;;;;;;3.45;1.45;;;22.70;61.30;;;;;;5116282;27;44068;-61
2022/10/16 12:20:13;;;;;;;3.83;1.50;;;22.70;61.30;;;;;;5096828;27;43833;-61
2022/10/16 12:22:49;;;;;;;4.07;1.83;;;22.70;61.30;;;;;;5114983;27;43447;-61
2022/10/16 12:25:35;;;;;;;3.92;1.40;;;22.70;61.30;;;;;;5116018;27;43448;-61
2022/10/16 12:28:05;;;;;;;2.65;1.88;;;22.70;61.20;;;;;;5109605;27;43870;-61
2022/10/16 12:30:37;;;;;;;3.30;1.70;;;22.70;61.10;;;;;;5111327;27;43905;-61
2022/10/16 12:33:27;;;;;;;3.13;1.42;;;22.70;61.20;;;;;;5118332;27;43483;-61
2022/10/16 12:35:57;;;;;;;3.55;1.40;;;22.70;61.10;;;;;;5106805;27;43596;-61
2022/10/16 12:38:50;;;;;;;3.20;1.50;;;22.70;61.20;;;;;;5112835;27;44822;-61
2022/10/16 12:41:33;;;;;;;3.53;1.55;;;22.70;61.10;;;;;;5096917;27;43808;-61
2022/10/16 12:44:01;;;;;;;3.03;1.40;;;22.70;61.10;;;;;;5114803;27;43378;-61
2022/10/16 12:46:29;;;;;;;2.28;1.40;;;22.70;61.10;;;;;;5119957;27;43442;-61
2022/10/16 12:49:15;;;;;;;2.85;1.30;;;22.70;61.20;;;;;;5117222;27;43888;-61
2022/10/16 12:51:43;;;;;;;3.10;1.60;;;22.70;61.20;;;;;;5113964;27;43547;-61
2022/10/16 12:54:30;;;;;;;4.22;1.40;;;22.80;61.20;;;;;;5121943;27;43485;-60
2022/10/16 12:57:19;;;;;;;2.25;1.30;;;22.80;61.20;;;;;;5115618;27;43601;-61
2022/10/16 13:00:06;;;;;;;2.33;1.35;;;22.80;61.20;;;;;;5110387;27;44846;-61
2022/10/16 13:02:50;;;;;;;3.00;1.30;;;22.80;61.30;;;;;;5119315;27;43401;-61
2022/10/16 13:05:34;;;;;;;1.83;1.15;;;22.80;61.20;;;;;;5094112;27;44026;-61
2022/10/16 13:08:22;;;;;;;2.88;1.50;;;22.80;61.80;;;;;;5117368;27;43378;-61
2022/10/16 13:11:14;;;;;;;2.53;1.27;;;22.80;61.30;;;;;;5115170;27;43736;-61
2022/10/16 13:14:16;;;;;;;2.90;1.38;;;22.80;61.30;;;;;;5111693;27;43421;-61
2022/10/16 13:17:13;;;;;;;2.30;1.38;;;22.70;61.30;;;;;;5111055;27;43405;-61
2022/10/16 13:20:20;;;;;;;2.90;1.42;;;22.70;61.30;;;;;;5095256;27;43631;-61